Time;durP1;ratioP1;P1;durP2;ratioP2;P2;SDS_P1;SDS_P2;PMS_P1;PMS_P2;Temp;Humidity;BMP_temperature;BMP_pressure;BME280_temperature;BME280_humidity;BME280_pressure;Samples;Min_cycle;Max_cycle;Signal;HPM_P1;HPM_P2
2022/08/10 00:00:28;;;;;;;9.82;4.95;;;;;;;;;;4961749;28;20768;-74
2022/08/10 00:02:57;;;;;;;13.40;5.13;;;;;;;;;;4956567;28;20043;-74
2022/08/10 00:05:23;;;;;;;8.30;4.30;;;;;;;;;;4961287;28;20031;-74
2022/08/10 00:07:49;;;;;;;7.05;3.85;;;;;;;;;;4956203;28;20031;-74
2022/08/10 00:10:17;;;;;;;9.02;4.97;;;;;;;;;;4956887;28;20085;-73
2022/08/10 00:12:43;;;;;;;10.20;4.55;;;;;;;;;;4954134;28;20069;-73
2022/08/10 00:15:11;;;;;;;10.23;5.05;;;;;;;;;;4967714;28;20054;-73
2022/08/10 00:17:37;;;;;;;9.57;4.18;;;;;;;;;;4957236;28;20480;-75
2022/08/10 00:20:04;;;;;;;9.98;4.85;;;;;;;;;;4976662;28;20026;-74
2022/08/10 00:22:29;;;;;;;8.10;4.50;;;;;;;;;;4979362;28;20478;-74
2022/08/10 00:24:56;;;;;;;8.00;4.60;;;;;;;;;;4964494;28;20038;-73
2022/08/10 00:27:26;;;;;;;10.40;4.72;;;;;;;;;;4983878;28;20066;-73
2022/08/10 00:29:52;;;;;;;5.60;4.45;;;;;;;;;;4960259;28;20035;-73
2022/08/10 00:32:18;;;;;;;7.22;4.43;;;;;;;;;;4976922;28;20027;-73
2022/08/10 00:34:44;;;;;;;10.23;5.22;;;;;;;;;;4960210;28;20094;-73
2022/08/10 00:37:11;;;;;;;7.82;5.18;;;;;;;;;;4959166;28;20575;-74
2022/08/10 00:39:36;;;;;;;8.77;5.30;;;;;;;;;;4965781;28;20034;-74
2022/08/10 00:42:05;;;;;;;8.65;5.15;;;;;;;;;;4961342;28;20042;-74
2022/08/10 00:44:30;;;;;;;10.52;5.10;;;;;;;;;;4976959;28;20022;-74
2022/08/10 00:46:58;;;;;;;10.32;4.60;;;;;;;;;;4960166;28;20405;-74
2022/08/10 00:49:23;;;;;;;13.88;4.70;;;;;;;;;;4959389;28;20058;-74
2022/08/10 00:51:49;;;;;;;7.72;5.07;;;;;;;;;;4974163;28;20023;-74
2022/08/10 00:54:15;;;;;;;11.40;5.03;;;;;;;;;;4964743;28;20027;-73
2022/08/10 00:56:41;;;;;;;11.00;5.40;;;;;;;;;;4978914;28;20041;-74
2022/08/10 00:59:06;;;;;;;6.43;4.65;;;;;;;;;;4966897;28;20024;-74
2022/08/10 01:01:32;;;;;;;9.85;5.20;;;;;;;;;;4963863;28;20033;-72
2022/08/10 01:03:57;;;;;;;7.22;5.00;;;;;;;;;;4960795;28;20159;-73
2022/08/10 01:06:36;;;;;;;8.27;5.20;;;;;;;;;;4965224;28;20137;-73
2022/08/10 01:09:10;;;;;;;7.60;5.70;;;;;;;;;;4979372;28;20088;-73
2022/08/10 01:12:07;;;;;;;7.65;4.70;;;;;;;;;;4952705;28;20506;-73
2022/08/10 01:15:41;;;;;;;7.88;5.28;;;;;;;;;;4954774;28;20031;-73
2022/08/10 01:18:46;;;;;;;6.80;4.88;;;;;;;;;;4895414;29;20118;-74
2022/08/10 01:21:29;;;;;;;7.55;5.03;;;;;;;;;;4825507;29;20915;-73
2022/08/10 01:24:07;;;;;;;8.07;5.20;;;;;;;;;;4960647;28;20046;-73
2022/08/10 01:27:11;;;;;;;5.88;4.45;;;;;;;;;;4957104;28;20035;-73
2022/08/10 01:29:45;;;;;;;8.52;5.30;;;;;;;;;;4886387;29;20067;-73
2022/08/10 01:32:13;;;;;;;7.57;4.22;;;;;;;;;;4954090;28;20034;-75
2022/08/10 01:34:48;;;;;;;7.38;5.13;;;;;;;;;;4961309;28;20031;-73
2022/08/10 01:37:19;;;;;;;7.75;4.80;;;;;;;;;;4964803;28;20360;-73
2022/08/10 01:39:50;;;;;;;8.43;5.20;;;;;;;;;;4959141;28;20062;-73
2022/08/10 01:42:18;;;;;;;8.85;4.90;;;;;;;;;;4963284;28;20483;-73
2022/08/10 01:44:52;;;;;;;7.72;4.60;;;;;;;;;;4957909;28;20035;-74
2022/08/10 01:50:08;;;;;;;11.18;4.82;;;;;;;;;;4953940;28;20558;-73
2022/08/10 01:52:38;;;;;;;5.43;4.57;;;;;;;;;;4958035;28;20046;-73
2022/08/10 01:55:05;;;;;;;6.45;4.78;;;;;;;;;;4967056;28;20027;-74
2022/08/10 01:57:33;;;;;;;8.27;5.22;;;;;;;;;;4956366;28;20058;-73
2022/08/10 02:00:00;;;;;;;10.38;5.03;;;;;;;;;;4973151;28;20666;-74
2022/08/10 02:02:29;;;;;;;6.72;4.97;;;;;;;;;;4976040;28;20121;-74
2022/08/10 02:04:54;;;;;;;8.48;6.78;;;;;;;;;;4964325;28;20062;-74
2022/08/10 02:07:23;;;;;;;12.05;4.68;;;;;;;;;;4966189;28;20058;-74
2022/08/10 02:09:52;;;;;;;6.00;4.47;;;;;;;;;;4980608;28;20475;-74
2022/08/10 02:12:21;;;;;;;7.15;4.07;;;;;;;;;;4982658;28;20046;-74
2022/08/10 02:14:52;;;;;;;7.53;4.32;;;;;;;;;;4959265;28;20035;-72
2022/08/10 02:17:21;;;;;;;8.85;5.57;;;;;;;;;;4962875;28;20030;-74
2022/08/10 02:19:48;;;;;;;13.20;4.90;;;;;;;;;;4958504;28;20428;-73
2022/08/10 02:22:16;;;;;;;10.95;5.10;;;;;;;;;;4963173;28;20077;-73
2022/08/10 02:24:44;;;;;;;7.00;4.22;;;;;;;;;;4961550;28;20086;-73
2022/08/10 02:27:11;;;;;;;10.65;4.55;;;;;;;;;;4956096;28;20074;-73
2022/08/10 02:29:40;;;;;;;16.83;7.32;;;;;;;;;;4978192;28;20035;-73
2022/08/10 02:32:07;;;;;;;7.97;5.55;;;;;;;;;;4972246;28;20043;-73
2022/08/10 02:34:35;;;;;;;9.55;5.22;;;;;;;;;;4968733;28;20264;-74
2022/08/10 02:37:02;;;;;;;6.30;4.68;;;;;;;;;;4951068;28;20097;-73
2022/08/10 02:39:30;;;;;;;8.65;4.43;;;;;;;;;;4957611;28;20038;-73
2022/08/10 02:42:04;;;;;;;6.05;4.43;;;;;;;;;;4978356;28;20034;-74
2022/08/10 02:44:38;;;;;;;8.43;4.60;;;;;;;;;;4958417;28;20039;-74
2022/08/10 02:47:11;;;;;;;6.57;4.53;;;;;;;;;;4959746;28;20041;-74
2022/08/10 02:49:45;;;;;;;6.00;5.22;;;;;;;;;;4962138;28;20039;-73
2022/08/10 02:52:18;;;;;;;11.07;4.72;;;;;;;;;;4961517;28;20034;-73
2022/08/10 02:55:09;;;;;;;6.60;4.75;;;;;;;;;;4958392;28;20038;-73
2022/08/10 02:57:39;;;;;;;8.03;5.30;;;;;;;;;;4958214;28;20492;-73
2022/08/10 03:00:06;;;;;;;7.28;4.90;;;;;;;;;;4971536;28;20039;-74
2022/08/10 03:02:38;;;;;;;11.77;4.85;;;;;;;;;;4972655;28;20410;-73
2022/08/10 03:05:10;;;;;;;;;;;;;;;;;;4975358;28;20031;-73
2022/08/10 03:07:55;;;;;;;;;;;;;;;;;;4977826;28;19921;-73
2022/08/10 03:10:28;;;;;;;7.10;5.00;;;;;;;;;;4942083;29;19953;-73
2022/08/10 03:12:58;;;;;;;6.45;4.80;;;;;;;;;;4963301;28;20023;-73
2022/08/10 03:15:26;;;;;;;7.15;4.90;;;;;;;;;;4951164;28;20431;-73
2022/08/10 03:17:52;;;;;;;8.55;4.80;;;;;;;;;;4968248;28;20062;-73
2022/08/10 03:20:20;;;;;;;5.55;4.55;;;;;;;;;;4955231;28;20035;-72
2022/08/10 03:22:49;;;;;;;9.85;5.40;;;;;;;;;;4972989;28;20517;-72
2022/08/10 03:25:17;;;;;;;8.73;4.88;;;;;;;;;;4958423;28;20186;-72
2022/08/10 03:27:43;;;;;;;11.77;5.10;;;;;;;;;;4975582;28;20031;-73
2022/08/10 03:30:10;;;;;;;5.70;5.05;;;;;;;;;;4958416;28;20031;-73
2022/08/10 03:32:36;;;;;;;7.00;4.78;;;;;;;;;;4973284;28;20395;-73
2022/08/10 03:35:05;;;;;;;17.55;5.32;;;;;;;;;;4958557;28;20102;-74
2022/08/10 03:37:31;;;;;;;8.27;4.50;;;;;;;;;;4961946;28;20070;-73
2022/08/10 03:39:56;;;;;;;7.45;4.63;;;;;;;;;;4978870;28;20098;-73
2022/08/10 03:42:23;;;;;;;8.10;5.45;;;;;;;;;;4966237;28;20042;-73
2022/08/10 03:44:51;;;;;;;13.48;5.63;;;;;;;;;;4976634;28;20118;-74
2022/08/10 03:47:18;;;;;;;7.68;4.80;;;;;;;;;;4959763;28;20031;-74
2022/08/10 03:49:46;;;;;;;11.30;5.40;;;;;;;;;;4971034;28;20031;-74
2022/08/10 03:52:14;;;;;;;13.52;5.18;;;;;;;;;;4963295;28;20027;-73
2022/08/10 03:54:40;;;;;;;8.68;5.20;;;;;;;;;;4964118;28;20487;-73
2022/08/10 03:57:06;;;;;;;7.07;5.10;;;;;;;;;;4960753;28;20043;-74
2022/08/10 03:59:32;;;;;;;7.00;5.20;;;;;;;;;;4962915;28;20033;-73
2022/08/10 04:01:58;;;;;;;6.93;5.00;;;;;;;;;;4971549;28;20061;-73
2022/08/10 04:04:24;;;;;;;6.63;4.72;;;;;;;;;;4962270;28;20027;-73
2022/08/10 04:06:51;;;;;;;10.00;5.60;;;;;;;;;;4964282;28;20097;-73
2022/08/10 04:09:17;;;;;;;6.40;5.18;;;;;;;;;;4965061;28;20031;-73
2022/08/10 04:11:42;;;;;;;8.70;4.97;;;;;;;;;;4973160;28;20041;-74
2022/08/10 04:14:08;;;;;;;6.00;5.00;;;;;;;;;;4964255;28;20093;-73
2022/08/10 04:16:33;;;;;;;7.63;5.82;;;;;;;;;;4960630;28;20069;-73
2022/08/10 04:18:59;;;;;;;5.45;4.95;;;;;;;;;;4963785;28;20066;-73
2022/08/10 04:21:33;;;;;;;9.55;6.82;;;;;;;;;;4961342;28;20030;-73
2022/08/10 04:24:01;;;;;;;6.65;5.13;;;;;;;;;;4964652;28;20519;-73
2022/08/10 04:26:28;;;;;;;12.15;5.78;;;;;;;;;;4962338;28;20073;-73
2022/08/10 04:28:54;;;;;;;11.57;6.00;;;;;;;;;;4974596;28;20039;-73
2022/08/10 04:31:21;;;;;;;9.27;5.57;;;;;;;;;;4970691;28;20121;-74
2022/08/10 04:33:49;;;;;;;7.45;5.50;;;;;;;;;;4962705;28;20027;-73
2022/08/10 04:36:17;;;;;;;8.00;5.57;;;;;;;;;;4962907;28;20037;-74
2022/08/10 04:38:43;;;;;;;10.57;5.35;;;;;;;;;;4973934;28;20035;-74
2022/08/10 04:41:09;;;;;;;8.45;5.68;;;;;;;;;;4962736;28;20430;-74
2022/08/10 04:43:34;;;;;;;9.90;6.00;;;;;;;;;;4977381;28;20520;-74
2022/08/10 04:46:00;;;;;;;9.27;6.63;;;;;;;;;;4958134;28;20027;-73
2022/08/10 04:48:25;;;;;;;10.07;5.57;;;;;;;;;;4962102;28;20027;-74
2022/08/10 04:50:51;;;;;;;9.30;5.03;;;;;;;;;;4962814;28;20039;-74
2022/08/10 04:53:17;;;;;;;13.20;8.93;;;;;;;;;;4960337;28;20420;-74
2022/08/10 04:55:43;;;;;;;12.93;6.60;;;;;;;;;;4962913;28;20153;-74
2022/08/10 04:58:08;;;;;;;9.68;5.40;;;;;;;;;;4959069;28;20572;-73
2022/08/10 05:00:34;;;;;;;7.22;5.60;;;;;;;;;;4971489;28;20027;-74
2022/08/10 05:03:00;;;;;;;8.93;5.03;;;;;;;;;;4970373;28;20391;-74
2022/08/10 05:05:25;;;;;;;10.23;5.53;;;;;;;;;;4962747;28;20037;-73
2022/08/10 05:07:51;;;;;;;10.85;5.65;;;;;;;;;;4961009;28;20102;-73
2022/08/10 05:10:16;;;;;;;5.95;5.05;;;;;;;;;;4963506;28;20038;-74
2022/08/10 05:12:42;;;;;;;10.95;6.43;;;;;;;;;;4959266;28;20039;-73
2022/08/10 05:15:12;;;;;;;7.10;5.68;;;;;;;;;;4963797;28;20507;-75
2022/08/10 05:17:38;;;;;;;17.17;5.95;;;;;;;;;;4961056;28;20452;-74
2022/08/10 05:20:06;;;;;;;7.93;5.40;;;;;;;;;;4975057;28;20041;-74
2022/08/10 05:22:40;;;;;;;12.18;5.90;;;;;;;;;;4966082;28;20042;-74
2022/08/10 05:25:17;;;;;;;11.63;5.55;;;;;;;;;;4968202;28;20027;-74
2022/08/10 05:27:44;;;;;;;8.80;6.45;;;;;;;;;;4964600;28;20030;-73
2022/08/10 05:30:16;;;;;;;12.38;5.75;;;;;;;;;;4959021;28;20023;-74
2022/08/10 05:32:42;;;;;;;8.63;6.47;;;;;;;;;;4964219;28;20117;-73
2022/08/10 05:35:08;;;;;;;9.85;6.90;;;;;;;;;;4979072;28;20034;-74
2022/08/10 05:37:35;;;;;;;8.55;5.57;;;;;;;;;;4962453;28;20031;-74
2022/08/10 05:40:04;;;;;;;6.32;5.25;;;;;;;;;;4969712;28;20034;-74
2022/08/10 05:42:29;;;;;;;14.80;6.97;;;;;;;;;;4955719;28;20133;-74
2022/08/10 05:44:55;;;;;;;8.65;6.00;;;;;;;;;;4977598;28;20082;-73
2022/08/10 05:47:21;;;;;;;8.38;6.05;;;;;;;;;;4952592;28;20031;-73
2022/08/10 05:49:48;;;;;;;8.98;6.13;;;;;;;;;;4952965;28;20038;-74
2022/08/10 05:52:18;;;;;;;12.38;6.22;;;;;;;;;;4959256;28;20042;-75
2022/08/10 05:54:46;;;;;;;13.50;6.57;;;;;;;;;;4960994;28;20102;-75
2022/08/10 05:57:15;;;;;;;8.18;6.43;;;;;;;;;;4954882;28;20688;-74
2022/08/10 05:59:46;;;;;;;7.10;5.50;;;;;;;;;;4963703;28;20154;-74
2022/08/10 06:02:19;;;;;;;12.45;6.78;;;;;;;;;;4962893;28;20027;-74
2022/08/10 06:04:46;;;;;;;8.13;6.25;;;;;;;;;;4957559;28;20038;-74
2022/08/10 06:07:14;;;;;;;13.38;6.43;;;;;;;;;;4964530;28;20110;-75
2022/08/10 06:09:42;;;;;;;15.35;7.60;;;;;;;;;;4969016;28;20030;-75
2022/08/10 06:12:08;;;;;;;10.23;6.05;;;;;;;;;;4959005;28;20027;-74
2022/08/10 06:17:23;;;;;;;9.20;6.75;;;;;;;;;;4954440;28;20045;-74
2022/08/10 06:19:49;;;;;;;10.05;8.60;;;;;;;;;;4973075;28;20625;-75
2022/08/10 06:22:16;;;;;;;24.38;9.60;;;;;;;;;;4966874;28;20027;-74
2022/08/10 06:24:42;;;;;;;12.38;7.35;;;;;;;;;;4969404;28;20033;-75
2022/08/10 06:27:08;;;;;;;12.27;7.50;;;;;;;;;;4964652;28;20027;-74
2022/08/10 06:29:39;;;;;;;10.32;6.85;;;;;;;;;;4953100;28;20058;-73
2022/08/10 06:32:07;;;;;;;13.57;7.20;;;;;;;;;;4963327;28;20058;-74
2022/08/10 06:34:37;;;;;;;12.60;6.93;;;;;;;;;;4968319;28;20074;-75
2022/08/10 06:37:05;;;;;;;12.13;6.95;;;;;;;;;;4960573;28;20038;-73
2022/08/10 06:39:32;;;;;;;14.50;7.00;;;;;;;;;;4966629;28;20412;-74
2022/08/10 06:42:05;;;;;;;15.20;7.18;;;;;;;;;;4955359;28;20050;-75
2022/08/10 06:44:38;;;;;;;11.88;7.15;;;;;;;;;;4957784;28;20478;-76
2022/08/10 06:47:06;;;;;;;10.85;7.05;;;;;;;;;;4973101;28;20498;-74
2022/08/10 06:49:32;;;;;;;13.27;7.07;;;;;;;;;;4956760;28;20403;-75
2022/08/10 06:52:00;;;;;;;13.23;7.50;;;;;;;;;;4966089;28;20023;-75
2022/08/10 06:54:30;;;;;;;22.15;8.50;;;;;;;;;;4966756;28;20118;-75
2022/08/10 06:56:57;;;;;;;15.40;7.18;;;;;;;;;;4969372;28;20042;-73
2022/08/10 06:59:41;;;;;;;11.98;6.75;;;;;;;;;;4977251;28;20034;-76
2022/08/10 07:02:10;;;;;;;18.40;7.68;;;;;;;;;;4964525;28;20035;-77
2022/08/10 07:04:54;;;;;;;15.77;7.30;;;;;;;;;;4955627;28;20109;-74
2022/08/10 07:07:24;;;;;;;10.93;6.57;;;;;;;;;;4955502;28;20053;-76
2022/08/10 07:09:52;;;;;;;16.52;7.32;;;;;;;;;;4969525;28;20058;-76
2022/08/10 07:12:20;;;;;;;15.05;7.15;;;;;;;;;;4964421;28;20038;-75
2022/08/10 07:14:50;;;;;;;12.02;6.22;;;;;;;;;;4962888;28;20040;-77
2022/08/10 07:17:19;;;;;;;20.30;7.25;;;;;;;;;;4964860;28;20033;-76
2022/08/10 07:19:50;;;;;;;24.35;7.30;;;;;;;;;;4956712;28;20043;-76
2022/08/10 07:22:18;;;;;;;18.33;9.77;;;;;;;;;;4962433;28;20444;-75
2022/08/10 07:24:44;;;;;;;12.07;6.70;;;;;;;;;;4960372;28;20484;-75
2022/08/10 07:27:12;;;;;;;16.02;7.60;;;;;;;;;;4962783;28;20035;-74
2022/08/10 07:29:39;;;;;;;21.67;6.78;;;;;;;;;;4958618;28;20042;-76
2022/08/10 07:32:07;;;;;;;11.63;7.10;;;;;;;;;;4963384;28;20051;-74
2022/08/10 07:34:37;;;;;;;15.52;6.80;;;;;;;;;;4960207;28;20030;-75
2022/08/10 07:37:06;;;;;;;17.58;8.90;;;;;;;;;;4956444;28;20040;-75
2022/08/10 07:39:36;;;;;;;12.75;6.50;;;;;;;;;;4967183;28;20138;-78
2022/08/10 07:42:03;;;;;;;16.48;6.72;;;;;;;;;;4985264;28;20070;-75
2022/08/10 07:44:32;;;;;;;10.00;6.10;;;;;;;;;;4966297;28;20027;-77
2022/08/10 07:47:02;;;;;;;14.60;5.93;;;;;;;;;;4962288;28;20057;-75
2022/08/10 07:49:34;;;;;;;8.82;5.18;;;;;;;;;;4962785;28;20027;-73
2022/08/10 07:52:04;;;;;;;15.57;6.85;;;;;;;;;;4954286;28;20030;-73
2022/08/10 07:54:37;;;;;;;9.13;6.05;;;;;;;;;;4973487;28;20035;-73
2022/08/10 07:57:08;;;;;;;10.38;5.97;;;;;;;;;;4946263;28;20113;-79
2022/08/10 07:59:44;;;;;;;12.20;5.85;;;;;;;;;;4942015;28;20039;-73
2022/08/10 08:02:19;;;;;;;24.90;6.32;;;;;;;;;;4966898;28;20125;-75
2022/08/10 08:04:46;;;;;;;15.13;5.35;;;;;;;;;;4952238;28;20031;-76
2022/08/10 08:07:14;;;;;;;11.20;5.60;;;;;;;;;;4957585;28;20039;-74
2022/08/10 08:09:40;;;;;;;12.55;5.30;;;;;;;;;;4952212;28;20094;-75
2022/08/10 08:12:08;;;;;;;18.75;6.43;;;;;;;;;;4965472;28;20034;-74
2022/08/10 08:14:38;;;;;;;12.05;6.15;;;;;;;;;;4951827;28;20061;-79
2022/08/10 08:17:06;;;;;;;14.52;7.90;;;;;;;;;;4952683;28;20497;-75
2022/08/10 08:19:33;;;;;;;12.30;5.07;;;;;;;;;;4949253;28;20827;-75
2022/08/10 08:22:03;;;;;;;19.40;6.78;;;;;;;;;;4954723;28;20899;-75
2022/08/10 08:24:32;;;;;;;12.80;5.97;;;;;;;;;;4953397;28;20039;-74
2022/08/10 08:26:59;;;;;;;9.07;5.07;;;;;;;;;;4965011;28;20029;-74
2022/08/10 08:29:25;;;;;;;13.68;6.28;;;;;;;;;;4955037;28;20365;-77
2022/08/10 08:31:53;;;;;;;13.13;5.05;;;;;;;;;;4958012;28;20038;-76
2022/08/10 08:34:19;;;;;;;23.08;4.65;;;;;;;;;;4956577;28;20117;-75
2022/08/10 08:36:48;;;;;;;11.52;3.20;;;;;;;;;;4955257;28;20037;-78
2022/08/10 08:39:15;;;;;;;7.72;3.70;;;;;;;;;;4957975;28;20042;-76
2022/08/10 08:42:02;;;;;;;10.70;4.50;;;;;;;;;;4951784;28;20743;-74
2022/08/10 08:44:49;;;;;;;6.60;3.53;;;;;;;;;;4949762;28;20511;-79
2022/08/10 08:47:56;;;;;;;5.05;3.35;;;;;;;;;;4955550;28;20499;-78
2022/08/10 08:50:52;;;;;;;9.00;3.85;;;;;;;;;;4885440;29;20047;-73
2022/08/10 08:53:29;;;;;;;7.47;3.95;;;;;;;;;;4868995;29;20037;-74
2022/08/10 08:56:20;;;;;;;22.05;5.65;;;;;;;;;;4937117;28;20047;-76
2022/08/10 08:59:04;;;;;;;9.85;3.40;;;;;;;;;;4953124;28;20148;-75
2022/08/10 09:01:54;;;;;;;6.57;3.65;;;;;;;;;;4952284;28;20027;-75
2022/08/10 09:04:32;;;;;;;8.82;3.60;;;;;;;;;;4958561;28;20041;-72
2022/08/10 09:07:45;;;;;;;6.50;3.60;;;;;;;;;;4952985;28;20035;-76
2022/08/10 09:10:28;;;;;;;8.90;4.20;;;;;;;;;;4948285;28;20046;-73
2022/08/10 09:13:07;;;;;;;7.15;3.33;;;;;;;;;;4947634;28;20046;-75
2022/08/10 09:15:40;;;;;;;7.07;3.33;;;;;;;;;;4960348;28;20086;-74
2022/08/10 09:18:12;;;;;;;10.18;3.95;;;;;;;;;;4969779;28;20731;-74
2022/08/10 09:20:54;;;;;;;6.43;3.47;;;;;;;;;;4948214;28;20039;-75
2022/08/10 09:23:41;;;;;;;16.45;4.03;;;;;;;;;;4974174;28;20082;-77
2022/08/10 09:26:18;;;;;;;8.80;3.88;;;;;;;;;;4947797;28;20538;-74
2022/08/10 09:28:44;;;;;;;7.32;3.78;;;;;;;;;;4954332;28;20821;-72
2022/08/10 09:31:18;;;;;;;8.50;3.92;;;;;;;;;;4948837;28;20514;-74
2022/08/10 09:33:57;;;;;;;5.60;4.15;;;;;;;;;;4975027;28;20038;-75
2022/08/10 09:36:48;;;;;;;8.70;3.60;;;;;;;;;;4961471;28;20031;-74
2022/08/10 09:39:42;;;;;;;6.45;3.28;;;;;;;;;;4936963;28;20038;-75
2022/08/10 09:43:11;;;;;;;7.85;4.10;;;;;;;;;;4951911;28;20030;-73
2022/08/10 09:46:05;;;;;;;9.35;3.50;;;;;;;;;;4858376;29;20083;-75
2022/08/10 09:48:31;;;;;;;5.55;2.80;;;;;;;;;;4948968;28;20049;-75
2022/08/10 09:51:13;;;;;;;5.93;4.53;;;;;;;;;;4950906;28;20396;-74
2022/08/10 09:53:55;;;;;;;10.18;4.32;;;;;;;;;;4945351;28;20031;-74
2022/08/10 09:56:42;;;;;;;8.05;3.28;;;;;;;;;;4951827;28;20031;-75
2022/08/10 09:59:14;;;;;;;7.50;3.90;;;;;;;;;;4954702;28;20075;-75
2022/08/10 10:02:23;;;;;;;9.30;3.58;;;;;;;;;;4954892;28;20035;-75
2022/08/10 10:05:09;;;;;;;6.85;3.30;;;;;;;;;;4944403;28;20108;-76
2022/08/10 10:07:42;;;;;;;8.43;3.78;;;;;;;;;;4950809;28;20030;-76
2022/08/10 10:10:21;;;;;;;4.78;3.58;;;;;;;;;;4951197;28;20033;-74
2022/08/10 10:13:21;;;;;;;7.57;3.03;;;;;;;;;;4956259;28;20054;-74
2022/08/10 10:16:02;;;;;;;5.22;3.63;;;;;;;;;;4962307;28;20061;-76
2022/08/10 10:19:03;;;;;;;9.20;3.63;;;;;;;;;;4955291;28;20142;-76
2022/08/10 10:21:47;;;;;;;4.95;3.15;;;;;;;;;;4959083;28;20038;-75
2022/08/10 10:24:34;;;;;;;6.05;3.28;;;;;;;;;;4965107;28;20442;-76
2022/08/10 10:27:09;;;;;;;6.28;3.58;;;;;;;;;;4956223;28;20031;-76
2022/08/10 10:30:04;;;;;;;5.88;3.25;;;;;;;;;;4947265;28;20039;-77
2022/08/10 10:32:57;;;;;;;8.80;3.30;;;;;;;;;;4945594;28;20055;-74
2022/08/10 10:35:48;;;;;;;7.53;3.15;;;;;;;;;;4961702;28;20062;-74
2022/08/10 10:38:17;;;;;;;10.25;4.50;;;;;;;;;;4959602;28;20030;-74
2022/08/10 10:40:58;;;;;;;10.13;3.35;;;;;;;;;;4945382;28;20268;-76
2022/08/10 10:43:47;;;;;;;14.07;3.47;;;;;;;;;;4944955;28;20034;-74
2022/08/10 10:46:50;;;;;;;5.68;2.85;;;;;;;;;;4962672;28;20039;-76
2022/08/10 10:49:18;;;;;;;7.50;3.38;;;;;;;;;;4934295;28;20089;-76
2022/08/10 10:52:01;;;;;;;7.18;4.60;;;;;;;;;;4965337;28;20054;-75
2022/08/10 10:54:39;;;;;;;4.72;3.55;;;;;;;;;;4962174;28;20034;-73
2022/08/10 10:57:28;;;;;;;6.60;3.42;;;;;;;;;;4962967;28;20035;-76
2022/08/10 11:00:07;;;;;;;5.60;3.50;;;;;;;;;;4950234;28;20054;-77
2022/08/10 11:02:45;;;;;;;5.85;3.90;;;;;;;;;;4950303;28;20117;-75
2022/08/10 11:05:41;;;;;;;5.40;3.13;;;;;;;;;;4961288;28;20038;-74
2022/08/10 11:08:18;;;;;;;8.30;4.85;;;;;;;;;;4962045;28;20033;-76
2022/08/10 11:11:06;;;;;;;7.97;3.45;;;;;;;;;;4949059;28;20337;-74
2022/08/10 11:13:49;;;;;;;3.50;3.05;;;;;;;;;;4966879;28;20035;-77
2022/08/10 11:16:35;;;;;;;4.63;2.65;;;;;;;;;;4952667;28;20597;-74
2022/08/10 11:19:20;;;;;;;6.78;2.35;;;;;;;;;;4951272;28;20510;-75
2022/08/10 11:22:06;;;;;;;6.70;2.72;;;;;;;;;;4962616;28;20043;-76
2022/08/10 11:24:32;;;;;;;3.10;2.70;;;;;;;;;;4963036;28;20035;-76
2022/08/10 11:27:08;;;;;;;6.32;3.00;;;;;;;;;;4962673;28;20038;-74
2022/08/10 11:29:52;;;;;;;3.42;2.50;;;;;;;;;;4966324;28;20073;-77
2022/08/10 11:32:29;;;;;;;8.00;3.67;;;;;;;;;;4949787;28;20475;-76
2022/08/10 11:35:15;;;;;;;5.72;3.00;;;;;;;;;;4971731;28;20558;-76
2022/08/10 11:37:56;;;;;;;6.18;2.70;;;;;;;;;;4957441;28;20027;-77
2022/08/10 11:40:51;;;;;;;8.77;3.28;;;;;;;;;;4974365;28;20034;-75
2022/08/10 11:43:22;;;;;;;11.38;2.80;;;;;;;;;;4971228;28;20697;-76
2022/08/10 11:46:11;;;;;;;7.35;2.60;;;;;;;;;;4963809;28;20035;-76
2022/08/10 11:48:48;;;;;;;4.65;2.35;;;;;;;;;;4969322;28;20045;-76
2022/08/10 11:51:38;;;;;;;11.32;2.45;;;;;;;;;;4954151;28;20065;-75
2022/08/10 11:54:15;;;;;;;7.25;2.80;;;;;;;;;;4957869;28;20031;-77
2022/08/10 11:56:49;;;;;;;3.83;2.42;;;;;;;;;;4963785;28;20039;-75
2022/08/10 12:02:04;;;;;;;6.90;2.15;;;;;;;;;;4946969;28;20123;-77
2022/08/10 12:04:39;;;;;;;3.58;2.70;;;;;;;;;;4954974;28;20035;-77
2022/08/10 12:07:08;;;;;;;7.28;3.20;;;;;;;;;;4952633;28;20408;-74
2022/08/10 12:09:34;;;;;;;2.65;2.45;;;;;;;;;;4961810;28;20431;-77
2022/08/10 12:12:01;;;;;;;8.30;2.78;;;;;;;;;;4962677;28;20033;-75
2022/08/10 12:14:55;;;;;;;12.88;2.95;;;;;;;;;;4950768;28;20027;-76
2022/08/10 12:17:31;;;;;;;17.80;6.10;;;;;;;;;;4933202;28;20048;-76
2022/08/10 12:20:37;;;;;;;5.13;2.85;;;;;;;;;;4948734;28;20510;-75
2022/08/10 12:23:22;;;;;;;5.97;3.00;;;;;;;;;;4901257;29;20036;-76
2022/08/10 12:26:11;;;;;;;10.18;3.95;;;;;;;;;;4902680;29;20785;-77
2022/08/10 12:28:50;;;;;;;3.95;2.55;;;;;;;;;;4895475;29;21217;-76
2022/08/10 12:31:22;;;;;;;6.43;3.03;;;;;;;;;;4898051;29;20063;-73
2022/08/10 12:34:15;;;;;;;9.65;3.88;;;;;;;;;;4911414;28;20112;-75
2022/08/10 12:36:45;;;;;;;5.95;2.85;;;;;;;;;;4935801;29;20043;-75
2022/08/10 12:39:16;;;;;;;12.30;2.92;;;;;;;;;;4958042;28;20690;-75
2022/08/10 12:42:09;;;;;;;5.25;2.40;;;;;;;;;;4936345;28;20039;-75
2022/08/10 12:44:41;;;;;;;8.18;2.85;;;;;;;;;;4938840;28;20031;-77
2022/08/10 12:47:27;;;;;;;5.18;2.67;;;;;;;;;;4934826;29;20057;-80
2022/08/10 12:49:59;;;;;;;5.95;2.67;;;;;;;;;;4943297;28;20031;-77
2022/08/10 12:52:44;;;;;;;5.13;2.50;;;;;;;;;;4935874;28;20059;-76
2022/08/10 12:55:11;;;;;;;5.72;2.95;;;;;;;;;;4936551;28;20047;-76
2022/08/10 12:57:39;;;;;;;3.55;2.90;;;;;;;;;;4934554;28;20122;-76
2022/08/10 13:00:06;;;;;;;7.63;2.83;;;;;;;;;;4923818;29;20615;-76
2022/08/10 13:02:43;;;;;;;16.52;3.58;;;;;;;;;;4926673;28;20031;-75
2022/08/10 13:05:12;;;;;;;9.45;3.60;;;;;;;;;;4942009;28;20042;-75
2022/08/10 13:07:41;;;;;;;10.05;2.97;;;;;;;;;;4935507;29;20032;-75
2022/08/10 13:10:11;;;;;;;4.68;3.03;;;;;;;;;;4937699;28;20042;-76
2022/08/10 13:12:45;;;;;;;6.05;2.67;;;;;;;;;;4935236;28;20043;-74
2022/08/10 13:15:32;;;;;;;11.13;3.05;;;;;;;;;;4942700;28;20051;-77
2022/08/10 13:18:01;;;;;;;5.75;3.30;;;;;;;;;;4971323;28;20472;-73
2022/08/10 13:20:34;;;;;;;5.00;2.88;;;;;;;;;;4957359;28;20058;-75
2022/08/10 13:23:02;;;;;;;5.57;3.75;;;;;;;;;;4959957;28;20069;-75
2022/08/10 13:25:39;;;;;;;7.35;3.42;;;;;;;;;;4967340;28;20034;-75
2022/08/10 13:28:10;;;;;;;9.55;3.05;;;;;;;;;;4962933;28;20030;-77
2022/08/10 13:30:39;;;;;;;9.48;3.67;;;;;;;;;;4946298;28;20569;-75
2022/08/10 13:33:08;;;;;;;5.65;2.67;;;;;;;;;;4952947;28;20042;-73
2022/08/10 13:35:37;;;;;;;6.00;3.10;;;;;;;;;;4956008;28;20039;-76
2022/08/10 13:38:04;;;;;;;7.95;3.60;;;;;;;;;;4970483;28;20038;-77
2022/08/10 13:40:31;;;;;;;8.13;3.47;;;;;;;;;;4967269;28;20141;-77
2022/08/10 13:42:59;;;;;;;8.13;2.72;;;;;;;;;;4953253;28;20031;-75
2022/08/10 13:45:26;;;;;;;13.20;7.28;;;;;;;;;;4955510;28;20036;-76
2022/08/10 13:48:13;;;;;;;6.80;2.53;;;;;;;;;;4953472;28;20874;-77
2022/08/10 13:50:40;;;;;;;9.57;3.95;;;;;;;;;;4948359;28;20043;-77
2022/08/10 13:53:10;;;;;;;6.53;3.20;;;;;;;;;;4972810;28;20114;-74
2022/08/10 13:55:42;;;;;;;4.37;2.40;;;;;;;;;;4972614;28;20026;-78
2022/08/10 13:58:09;;;;;;;6.43;3.10;;;;;;;;;;4955987;28;20034;-76
2022/08/10 14:00:39;;;;;;;4.03;2.65;;;;;;;;;;4949007;28;20030;-74
2022/08/10 14:03:10;;;;;;;6.32;2.63;;;;;;;;;;4955574;28;20037;-76
2022/08/10 14:05:39;;;;;;;10.70;2.95;;;;;;;;;;4955142;28;20392;-77
2022/08/10 14:08:11;;;;;;;5.32;3.60;;;;;;;;;;4964232;28;20027;-79
2022/08/10 14:10:40;;;;;;;6.07;2.60;;;;;;;;;;4955360;28;20034;-78
2022/08/10 14:13:06;;;;;;;6.95;2.78;;;;;;;;;;4959488;28;20640;-78
2022/08/10 14:15:37;;;;;;;9.70;2.28;;;;;;;;;;4964638;28;20129;-77
2022/08/10 14:18:05;;;;;;;5.03;2.55;;;;;;;;;;4962545;28;20026;-77
2022/08/10 14:20:36;;;;;;;4.10;2.95;;;;;;;;;;4969928;28;20035;-79
2022/08/10 14:23:07;;;;;;;3.40;2.58;;;;;;;;;;4977898;28;20038;-79
2022/08/10 14:25:46;;;;;;;4.93;3.15;;;;;;;;;;4982773;28;20049;-79
2022/08/10 14:28:27;;;;;;;6.97;2.88;;;;;;;;;;4966907;28;20041;-78
2022/08/10 14:31:05;;;;;;;5.05;3.03;;;;;;;;;;4965617;28;20337;-80
2022/08/10 14:33:33;;;;;;;7.05;3.03;;;;;;;;;;4962525;28;20042;-77
2022/08/10 14:35:59;;;;;;;3.70;2.70;;;;;;;;;;4963120;28;20042;-77
2022/08/10 14:38:32;;;;;;;3.78;2.45;;;;;;;;;;4967614;28;20027;-78
2022/08/10 14:41:00;;;;;;;6.68;3.28;;;;;;;;;;4979420;28;20062;-77
2022/08/10 14:43:38;;;;;;;14.63;4.28;;;;;;;;;;4964954;28;20045;-79
2022/08/10 14:46:10;;;;;;;4.20;2.72;;;;;;;;;;4966084;28;20436;-76
2022/08/10 14:48:42;;;;;;;8.93;2.90;;;;;;;;;;4970500;28;20038;-79
2022/08/10 14:51:12;;;;;;;9.35;3.30;;;;;;;;;;4973391;28;20034;-77
2022/08/10 14:53:40;;;;;;;7.68;3.10;;;;;;;;;;4993704;28;20025;-79
2022/08/10 14:56:09;;;;;;;6.50;2.25;;;;;;;;;;4975223;28;20042;-78
2022/08/10 14:58:37;;;;;;;4.85;3.00;;;;;;;;;;4963728;28;20399;-78
2022/08/10 15:01:06;;;;;;;3.40;2.25;;;;;;;;;;4954152;28;20047;-80
2022/08/10 15:03:37;;;;;;;6.15;2.88;;;;;;;;;;4965560;28;20042;-79
2022/08/10 15:06:10;;;;;;;11.20;2.15;;;;;;;;;;4964042;28;20113;-79
2022/08/10 15:08:36;;;;;;;5.50;2.70;;;;;;;;;;4969143;28;20045;-79
2022/08/10 15:11:02;;;;;;;7.53;2.33;;;;;;;;;;4950827;28;20035;-79
2022/08/10 15:13:28;;;;;;;11.82;2.22;;;;;;;;;;4972571;28;20287;-76
2022/08/10 15:15:58;;;;;;;5.68;2.20;;;;;;;;;;4977448;28;20051;-78
2022/08/10 15:18:27;;;;;;;6.15;2.35;;;;;;;;;;4956850;28;20035;-77
2022/08/10 15:20:57;;;;;;;3.70;2.30;;;;;;;;;;4963616;28;20057;-79